Fort Supply, Oklahoma
Current Conditions -  °F | °C
As of 8:35 PM on Sunday 23 Nov 2014 (Local Time) from KWWR Reporting Station
Clear Clear  
Wind Chill: 34°   Ceiling: Unl
Heat Index: 39°   Visibility: 10mi
Dew Point: 28°   Wind: 8mph
Humidity: 65%   Direction: 280°W
Pressure: 29.79"   Gusts: NA
Location:  36.57°N, 99.57°W
Report Text: KWWR 240235Z AUTO 28007KT 10SM CLR 04/M02 A2979 RMK AO2
Loading
Personal Weather Stations






























Interactive Weather Map New forecast layout! Learn more

10-Day Weather Forecast

Advertisements
Track Severe Weather on mobile